sensor_id;sensor_type;location;lat;lon;timestamp;P1;durP1;ratioP1;P2;durP2;ratioP2
64716;SDS011;51146;50.274;19.000;2022-08-27T00:01:19;16.13;;;10.05;;
64716;SDS011;51146;50.274;19.000;2022-08-27T00:03:46;16.73;;;9.80;;
64716;SDS011;51146;50.274;19.000;2022-08-27T00:06:13;15.98;;;10.40;;
64716;SDS011;51146;50.274;19.000;2022-08-27T00:08:44;13.30;;;9.05;;
64716;SDS011;51146;50.274;19.000;2022-08-27T00:11:12;17.30;;;9.45;;
64716;SDS011;51146;50.274;19.000;2022-08-27T00:13:39;14.35;;;10.05;;
64716;SDS011;51146;50.274;19.000;2022-08-27T00:16:08;15.93;;;9.02;;
64716;SDS011;51146;50.274;19.000;2022-08-27T00:18:36;14.10;;;8.88;;
64716;SDS011;51146;50.274;19.000;2022-08-27T00:21:05;15.13;;;9.30;;
64716;SDS011;51146;50.274;19.000;2022-08-27T00:23:33;16.70;;;9.65;;
64716;SDS011;51146;50.274;19.000;2022-08-27T00:26:01;13.75;;;9.07;;
64716;SDS011;51146;50.274;19.000;2022-08-27T00:28:28;13.23;;;9.10;;
64716;SDS011;51146;50.274;19.000;2022-08-27T00:30:56;13.38;;;9.05;;
64716;SDS011;51146;50.274;19.000;2022-08-27T00:33:24;14.45;;;8.52;;
64716;SDS011;51146;50.274;19.000;2022-08-27T00:35:53;16.88;;;9.20;;
64716;SDS011;51146;50.274;19.000;2022-08-27T00:38:21;17.10;;;9.40;;
64716;SDS011;51146;50.274;19.000;2022-08-27T00:40:49;17.45;;;9.20;;
64716;SDS011;51146;50.274;19.000;2022-08-27T00:44:00;12.57;;;9.27;;
64716;SDS011;51146;50.274;19.000;2022-08-27T00:46:16;14.75;;;9.52;;
64716;SDS011;51146;50.274;19.000;2022-08-27T00:48:47;17.15;;;9.60;;
64716;SDS011;51146;50.274;19.000;2022-08-27T00:51:16;15.25;;;8.57;;
64716;SDS011;51146;50.274;19.000;2022-08-27T00:56:15;18.85;;;9.48;;
64716;SDS011;51146;50.274;19.000;2022-08-27T00:58:47;13.50;;;8.93;;
64716;SDS011;51146;50.274;19.000;2022-08-27T01:01:19;19.48;;;10.20;;
64716;SDS011;51146;50.274;19.000;2022-08-27T01:03:48;18.55;;;9.73;;
64716;SDS011;51146;50.274;19.000;2022-08-27T01:06:20;11.32;;;8.95;;
64716;SDS011;51146;50.274;19.000;2022-08-27T01:08:52;11.68;;;8.90;;
64716;SDS011;51146;50.274;19.000;2022-08-27T01:11:24;15.88;;;8.82;;
64716;SDS011;51146;50.274;19.000;2022-08-27T01:13:51;18.25;;;8.65;;
64716;SDS011;51146;50.274;19.000;2022-08-27T01:16:27;13.70;;;7.68;;
64716;SDS011;51146;50.274;19.000;2022-08-27T01:18:59;15.10;;;8.27;;
64716;SDS011;51146;50.274;19.000;2022-08-27T01:26:43;12.57;;;8.18;;
64716;SDS011;51146;50.274;19.000;2022-08-27T01:29:11;13.70;;;8.35;;
64716;SDS011;51146;50.274;19.000;2022-08-27T01:31:39;12.57;;;8.23;;
64716;SDS011;51146;50.274;19.000;2022-08-27T01:34:05;12.73;;;7.90;;
64716;SDS011;51146;50.274;19.000;2022-08-27T01:36:33;14.10;;;7.32;;
64716;SDS011;51146;50.274;19.000;2022-08-27T01:39:00;13.25;;;7.50;;
64716;SDS011;51146;50.274;19.000;2022-08-27T01:41:26;13.65;;;8.73;;
64716;SDS011;51146;50.274;19.000;2022-08-27T01:43:54;13.05;;;7.60;;
64716;SDS011;51146;50.274;19.000;2022-08-27T01:46:22;12.50;;;8.32;;
64716;SDS011;51146;50.274;19.000;2022-08-27T01:48:50;13.18;;;7.50;;
64716;SDS011;51146;50.274;19.000;2022-08-27T01:51:17;14.15;;;8.13;;
64716;SDS011;51146;50.274;19.000;2022-08-27T01:53:44;13.02;;;7.97;;
64716;SDS011;51146;50.274;19.000;2022-08-27T01:56:12;13.65;;;8.25;;
64716;SDS011;51146;50.274;19.000;2022-08-27T01:58:41;14.48;;;7.53;;
64716;SDS011;51146;50.274;19.000;2022-08-27T02:01:10;13.45;;;7.50;;
64716;SDS011;51146;50.274;19.000;2022-08-27T02:03:39;9.48;;;8.07;;
64716;SDS011;51146;50.274;19.000;2022-08-27T02:06:08;12.88;;;8.07;;
64716;SDS011;51146;50.274;19.000;2022-08-27T02:08:37;13.52;;;7.60;;
64716;SDS011;51146;50.274;19.000;2022-08-27T02:11:07;15.73;;;7.72;;
64716;SDS011;51146;50.274;19.000;2022-08-27T02:13:34;11.82;;;8.15;;
64716;SDS011;51146;50.274;19.000;2022-08-27T02:16:02;20.08;;;8.55;;
64716;SDS011;51146;50.274;19.000;2022-08-27T02:18:29;14.50;;;8.02;;
64716;SDS011;51146;50.274;19.000;2022-08-27T02:20:56;18.05;;;8.43;;
64716;SDS011;51146;50.274;19.000;2022-08-27T02:23:23;13.13;;;7.65;;
64716;SDS011;51146;50.274;19.000;2022-08-27T02:25:49;16.65;;;8.27;;
64716;SDS011;51146;50.274;19.000;2022-08-27T02:28:16;17.33;;;8.02;;
64716;SDS011;51146;50.274;19.000;2022-08-27T02:30:43;16.58;;;8.90;;
64716;SDS011;51146;50.274;19.000;2022-08-27T02:33:10;17.63;;;8.75;;
64716;SDS011;51146;50.274;19.000;2022-08-27T02:35:38;16.60;;;9.13;;
64716;SDS011;51146;50.274;19.000;2022-08-27T02:40:36;17.40;;;8.68;;
64716;SDS011;51146;50.274;19.000;2022-08-27T02:43:03;12.98;;;7.50;;
64716;SDS011;51146;50.274;19.000;2022-08-27T02:45:30;14.68;;;8.63;;
64716;SDS011;51146;50.274;19.000;2022-08-27T02:48:00;21.17;;;8.63;;
64716;SDS011;51146;50.274;19.000;2022-08-27T02:50:27;15.85;;;8.75;;
64716;SDS011;51146;50.274;19.000;2022-08-27T02:52:54;14.13;;;8.27;;
64716;SDS011;51146;50.274;19.000;2022-08-27T02:55:21;16.60;;;8.93;;
64716;SDS011;51146;50.274;19.000;2022-08-27T02:57:48;17.02;;;8.73;;
64716;SDS011;51146;50.274;19.000;2022-08-27T03:00:17;14.00;;;8.30;;
64716;SDS011;51146;50.274;19.000;2022-08-27T03:02:46;14.07;;;8.57;;
64716;SDS011;51146;50.274;19.000;2022-08-27T03:05:14;13.55;;;9.20;;
64716;SDS011;51146;50.274;19.000;2022-08-27T03:07:41;15.93;;;8.48;;
64716;SDS011;51146;50.274;19.000;2022-08-27T03:10:10;15.95;;;8.93;;
64716;SDS011;51146;50.274;19.000;2022-08-27T03:12:39;15.20;;;9.77;;
64716;SDS011;51146;50.274;19.000;2022-08-27T03:15:07;14.95;;;8.45;;
64716;SDS011;51146;50.274;19.000;2022-08-27T03:20:21;15.27;;;9.65;;
64716;SDS011;51146;50.274;19.000;2022-08-27T03:22:51;16.10;;;9.05;;
64716;SDS011;51146;50.274;19.000;2022-08-27T03:25:18;12.98;;;8.95;;
64716;SDS011;51146;50.274;19.000;2022-08-27T03:27:46;13.55;;;8.18;;
64716;SDS011;51146;50.274;19.000;2022-08-27T03:30:14;19.52;;;9.95;;
64716;SDS011;51146;50.274;19.000;2022-08-27T03:32:44;14.60;;;9.63;;
64716;SDS011;51146;50.274;19.000;2022-08-27T03:35:11;18.58;;;9.52;;
64716;SDS011;51146;50.274;19.000;2022-08-27T03:37:40;21.13;;;10.07;;
64716;SDS011;51146;50.274;19.000;2022-08-27T03:40:07;19.10;;;9.57;;
64716;SDS011;51146;50.274;19.000;2022-08-27T03:42:35;14.05;;;8.93;;
64716;SDS011;51146;50.274;19.000;2022-08-27T03:45:02;15.55;;;8.80;;
64716;SDS011;51146;50.274;19.000;2022-08-27T03:47:30;20.42;;;10.95;;
64716;SDS011;51146;50.274;19.000;2022-08-27T03:49:58;21.83;;;9.85;;
64716;SDS011;51146;50.274;19.000;2022-08-27T03:52:26;21.52;;;10.43;;
64716;SDS011;51146;50.274;19.000;2022-08-27T03:54:53;20.77;;;10.48;;
64716;SDS011;51146;50.274;19.000;2022-08-27T03:57:20;17.35;;;10.13;;
64716;SDS011;51146;50.274;19.000;2022-08-27T03:59:47;21.25;;;10.35;;
64716;SDS011;51146;50.274;19.000;2022-08-27T04:02:19;18.63;;;9.45;;
64716;SDS011;51146;50.274;19.000;2022-08-27T04:04:46;20.85;;;9.38;;
64716;SDS011;51146;50.274;19.000;2022-08-27T04:07:12;18.92;;;10.35;;
64716;SDS011;51146;50.274;19.000;2022-08-27T04:09:39;14.98;;;9.95;;
64716;SDS011;51146;50.274;19.000;2022-08-27T04:12:06;19.13;;;10.20;;
64716;SDS011;51146;50.274;19.000;2022-08-27T04:14:33;19.38;;;10.32;;
64716;SDS011;51146;50.274;19.000;2022-08-27T04:17:00;19.60;;;10.35;;
64716;SDS011;51146;50.274;19.000;2022-08-27T04:19:27;15.25;;;9.65;;
64716;SDS011;51146;50.274;19.000;2022-08-27T04:22:04;17.90;;;9.20;;
64716;SDS011;51146;50.274;19.000;2022-08-27T04:24:32;19.77;;;9.40;;
64716;SDS011;51146;50.274;19.000;2022-08-27T04:27:01;15.40;;;9.30;;
64716;SDS011;51146;50.274;19.000;2022-08-27T04:29:30;16.38;;;9.40;;
64716;SDS011;51146;50.274;19.000;2022-08-27T04:31:57;15.32;;;9.60;;
64716;SDS011;51146;50.274;19.000;2022-08-27T04:34:25;16.75;;;9.60;;
64716;SDS011;51146;50.274;19.000;2022-08-27T04:36:56;17.45;;;10.52;;
64716;SDS011;51146;50.274;19.000;2022-08-27T04:39:23;14.15;;;9.40;;
64716;SDS011;51146;50.274;19.000;2022-08-27T04:41:52;17.05;;;9.85;;
64716;SDS011;51146;50.274;19.000;2022-08-27T04:44:25;14.48;;;9.43;;
64716;SDS011;51146;50.274;19.000;2022-08-27T04:46:54;16.05;;;9.18;;
64716;SDS011;51146;50.274;19.000;2022-08-27T04:49:23;16.65;;;10.02;;
64716;SDS011;51146;50.274;19.000;2022-08-27T04:51:51;16.73;;;9.80;;
64716;SDS011;51146;50.274;19.000;2022-08-27T04:54:19;15.82;;;9.27;;
64716;SDS011;51146;50.274;19.000;2022-08-27T04:57:00;17.60;;;9.30;;
64716;SDS011;51146;50.274;19.000;2022-08-27T04:59:29;16.85;;;9.13;;
64716;SDS011;51146;50.274;19.000;2022-08-27T05:04:28;20.58;;;9.15;;
64716;SDS011;51146;50.274;19.000;2022-08-27T05:06:57;20.08;;;10.05;;
64716;SDS011;51146;50.274;19.000;2022-08-27T05:09:25;17.40;;;9.55;;
64716;SDS011;51146;50.274;19.000;2022-08-27T05:11:52;17.10;;;9.05;;
64716;SDS011;51146;50.274;19.000;2022-08-27T05:14:20;18.95;;;9.65;;
64716;SDS011;51146;50.274;19.000;2022-08-27T05:16:49;17.13;;;9.48;;
64716;SDS011;51146;50.274;19.000;2022-08-27T05:19:16;16.10;;;9.90;;
64716;SDS011;51146;50.274;19.000;2022-08-27T05:21:45;14.88;;;9.70;;
64716;SDS011;51146;50.274;19.000;2022-08-27T05:24:15;15.65;;;9.88;;
64716;SDS011;51146;50.274;19.000;2022-08-27T05:26:43;17.75;;;9.13;;
64716;SDS011;51146;50.274;19.000;2022-08-27T05:29:10;14.57;;;9.57;;
64716;SDS011;51146;50.274;19.000;2022-08-27T05:31:37;13.27;;;8.50;;
64716;SDS011;51146;50.274;19.000;2022-08-27T05:34:05;18.73;;;9.00;;
64716;SDS011;51146;50.274;19.000;2022-08-27T05:36:40;15.15;;;9.07;;
64716;SDS011;51146;50.274;19.000;2022-08-27T05:39:13;13.98;;;8.10;;
64716;SDS011;51146;50.274;19.000;2022-08-27T05:41:41;14.50;;;8.75;;
64716;SDS011;51146;50.274;19.000;2022-08-27T05:44:08;14.68;;;8.73;;
64716;SDS011;51146;50.274;19.000;2022-08-27T05:46:55;11.45;;;8.48;;
64716;SDS011;51146;50.274;19.000;2022-08-27T05:53:02;20.45;;;9.18;;
64716;SDS011;51146;50.274;19.000;2022-08-27T05:55:34;17.55;;;9.88;;
64716;SDS011;51146;50.274;19.000;2022-08-27T05:58:06;13.10;;;8.75;;
64716;SDS011;51146;50.274;19.000;2022-08-27T06:00:36;13.35;;;7.97;;
64716;SDS011;51146;50.274;19.000;2022-08-27T06:03:28;16.88;;;8.40;;
64716;SDS011;51146;50.274;19.000;2022-08-27T06:06:00;13.15;;;8.05;;
64716;SDS011;51146;50.274;19.000;2022-08-27T06:08:35;15.90;;;8.65;;
64716;SDS011;51146;50.274;19.000;2022-08-27T06:11:04;16.13;;;8.10;;
64716;SDS011;51146;50.274;19.000;2022-08-27T06:13:33;18.03;;;8.70;;
64716;SDS011;51146;50.274;19.000;2022-08-27T06:16:05;11.07;;;8.03;;
64716;SDS011;51146;50.274;19.000;2022-08-27T06:18:34;12.98;;;8.30;;
64716;SDS011;51146;50.274;19.000;2022-08-27T06:21:04;13.10;;;9.07;;
64716;SDS011;51146;50.274;19.000;2022-08-27T06:23:32;13.93;;;8.57;;
64716;SDS011;51146;50.274;19.000;2022-08-27T06:25:59;15.57;;;8.70;;
64716;SDS011;51146;50.274;19.000;2022-08-27T06:28:28;14.35;;;8.60;;
64716;SDS011;51146;50.274;19.000;2022-08-27T06:31:08;12.57;;;8.57;;
64716;SDS011;51146;50.274;19.000;2022-08-27T06:34:00;14.40;;;9.40;;
64716;SDS011;51146;50.274;19.000;2022-08-27T06:39:01;20.48;;;8.57;;
64716;SDS011;51146;50.274;19.000;2022-08-27T06:41:28;22.67;;;9.48;;
64716;SDS011;51146;50.274;19.000;2022-08-27T06:43:55;15.25;;;8.95;;
64716;SDS011;51146;50.274;19.000;2022-08-27T06:46:26;15.40;;;8.30;;
64716;SDS011;51146;50.274;19.000;2022-08-27T06:48:55;23.27;;;9.82;;
64716;SDS011;51146;50.274;19.000;2022-08-27T06:51:28;16.40;;;9.05;;
64716;SDS011;51146;50.274;19.000;2022-08-27T06:53:59;18.15;;;9.07;;
64716;SDS011;51146;50.274;19.000;2022-08-27T06:56:28;20.45;;;9.07;;
64716;SDS011;51146;50.274;19.000;2022-08-27T06:58:57;17.20;;;8.73;;
64716;SDS011;51146;50.274;19.000;2022-08-27T07:01:28;13.00;;;8.43;;
64716;SDS011;51146;50.274;19.000;2022-08-27T07:03:58;14.35;;;9.20;;
64716;SDS011;51146;50.274;19.000;2022-08-27T07:06:28;17.60;;;8.95;;
64716;SDS011;51146;50.274;19.000;2022-08-27T07:08:57;13.20;;;8.82;;
64716;SDS011;51146;50.274;19.000;2022-08-27T07:11:25;17.95;;;7.85;;
64716;SDS011;51146;50.274;19.000;2022-08-27T07:13:53;14.02;;;9.10;;
64716;SDS011;51146;50.274;19.000;2022-08-27T07:16:22;13.45;;;8.05;;
64716;SDS011;51146;50.274;19.000;2022-08-27T07:18:54;13.85;;;8.10;;
64716;SDS011;51146;50.274;19.000;2022-08-27T07:21:28;13.23;;;8.13;;
64716;SDS011;51146;50.274;19.000;2022-08-27T07:23:56;12.45;;;7.38;;
64716;SDS011;51146;50.274;19.000;2022-08-27T07:26:25;12.43;;;8.70;;
64716;SDS011;51146;50.274;19.000;2022-08-27T07:28:53;15.87;;;8.30;;
64716;SDS011;51146;50.274;19.000;2022-08-27T07:31:21;14.77;;;8.40;;
64716;SDS011;51146;50.274;19.000;2022-08-27T07:33:49;14.27;;;8.32;;
64716;SDS011;51146;50.274;19.000;2022-08-27T07:36:18;26.52;;;9.00;;
64716;SDS011;51146;50.274;19.000;2022-08-27T07:38:48;15.55;;;8.45;;
64716;SDS011;51146;50.274;19.000;2022-08-27T07:41:26;14.40;;;8.35;;
64716;SDS011;51146;50.274;19.000;2022-08-27T07:43:57;14.57;;;8.90;;
64716;SDS011;51146;50.274;19.000;2022-08-27T07:46:45;15.00;;;9.00;;
64716;SDS011;51146;50.274;19.000;2022-08-27T07:49:14;14.32;;;8.55;;
64716;SDS011;51146;50.274;19.000;2022-08-27T07:51:42;16.27;;;8.37;;
64716;SDS011;51146;50.274;19.000;2022-08-27T07:54:10;17.15;;;8.95;;
64716;SDS011;51146;50.274;19.000;2022-08-27T07:56:36;14.63;;;10.63;;
64716;SDS011;51146;50.274;19.000;2022-08-27T07:59:05;14.07;;;8.50;;
64716;SDS011;51146;50.274;19.000;2022-08-27T08:01:32;13.60;;;9.40;;
64716;SDS011;51146;50.274;19.000;2022-08-27T08:03:59;16.40;;;9.48;;
64716;SDS011;51146;50.274;19.000;2022-08-27T08:06:27;14.32;;;9.55;;
64716;SDS011;51146;50.274;19.000;2022-08-27T08:08:53;14.32;;;9.60;;
64716;SDS011;51146;50.274;19.000;2022-08-27T08:11:21;11.05;;;8.85;;
64716;SDS011;51146;50.274;19.000;2022-08-27T08:13:48;15.45;;;8.90;;
64716;SDS011;51146;50.274;19.000;2022-08-27T08:16:15;11.02;;;8.30;;
64716;SDS011;51146;50.274;19.000;2022-08-27T08:18:42;13.05;;;9.75;;
64716;SDS011;51146;50.274;19.000;2022-08-27T08:21:10;15.02;;;8.95;;
64716;SDS011;51146;50.274;19.000;2022-08-27T08:23:42;15.00;;;11.23;;
64716;SDS011;51146;50.274;19.000;2022-08-27T08:26:10;17.25;;;11.20;;
64716;SDS011;51146;50.274;19.000;2022-08-27T08:28:39;15.50;;;11.18;;
64716;SDS011;51146;50.274;19.000;2022-08-27T08:31:06;18.58;;;11.50;;
64716;SDS011;51146;50.274;19.000;2022-08-27T08:33:34;13.52;;;10.60;;
64716;SDS011;51146;50.274;19.000;2022-08-27T08:36:03;14.90;;;10.60;;
64716;SDS011;51146;50.274;19.000;2022-08-27T08:38:41;14.57;;;10.65;;
64716;SDS011;51146;50.274;19.000;2022-08-27T08:44:18;15.57;;;10.45;;
64716;SDS011;51146;50.274;19.000;2022-08-27T08:47:09;13.32;;;10.88;;
64716;SDS011;51146;50.274;19.000;2022-08-27T08:49:45;13.88;;;10.13;;
64716;SDS011;51146;50.274;19.000;2022-08-27T08:52:31;17.10;;;10.63;;
64716;SDS011;51146;50.274;19.000;2022-08-27T09:00:43;17.65;;;11.52;;
64716;SDS011;51146;50.274;19.000;2022-08-27T09:03:13;17.13;;;11.38;;
64716;SDS011;51146;50.274;19.000;2022-08-27T09:05:44;18.30;;;10.45;;
64716;SDS011;51146;50.274;19.000;2022-08-27T09:08:19;18.98;;;10.48;;
64716;SDS011;51146;50.274;19.000;2022-08-27T09:13:31;16.27;;;10.48;;
64716;SDS011;51146;50.274;19.000;2022-08-27T09:16:04;16.75;;;10.63;;
64716;SDS011;51146;50.274;19.000;2022-08-27T09:18:34;12.95;;;10.90;;
64716;SDS011;51146;50.274;19.000;2022-08-27T09:21:05;20.55;;;11.40;;
64716;SDS011;51146;50.274;19.000;2022-08-27T09:26:30;16.05;;;10.75;;
64716;SDS011;51146;50.274;19.000;2022-08-27T09:29:04;21.08;;;11.02;;
64716;SDS011;51146;50.274;19.000;2022-08-27T09:32:02;18.08;;;10.15;;
64716;SDS011;51146;50.274;19.000;2022-08-27T09:34:38;14.10;;;9.98;;
64716;SDS011;51146;50.274;19.000;2022-08-27T09:37:14;14.13;;;10.98;;
64716;SDS011;51146;50.274;19.000;2022-08-27T09:39:55;12.98;;;9.73;;
64716;SDS011;51146;50.274;19.000;2022-08-27T09:44:55;11.38;;;9.25;;
64716;SDS011;51146;50.274;19.000;2022-08-27T09:47:22;14.50;;;9.57;;
64716;SDS011;51146;50.274;19.000;2022-08-27T09:50:00;12.65;;;9.88;;
64716;SDS011;51146;50.274;19.000;2022-08-27T09:52:54;16.52;;;9.82;;
64716;SDS011;51146;50.274;19.000;2022-08-27T09:57:54;13.90;;;10.95;;
64716;SDS011;51146;50.274;19.000;2022-08-27T10:00:27;17.63;;;11.32;;
64716;SDS011;51146;50.274;19.000;2022-08-27T10:03:03;17.20;;;10.68;;
64716;SDS011;51146;50.274;19.000;2022-08-27T10:06:04;13.85;;;11.27;;
64716;SDS011;51146;50.274;19.000;2022-08-27T10:08:29;17.83;;;10.70;;
64716;SDS011;51146;50.274;19.000;2022-08-27T10:11:49;14.45;;;10.77;;
64716;SDS011;51146;50.274;19.000;2022-08-27T10:14:00;19.15;;;10.75;;
64716;SDS011;51146;50.274;19.000;2022-08-27T10:16:49;16.90;;;11.30;;
64716;SDS011;51146;50.274;19.000;2022-08-27T10:21:55;13.02;;;11.55;;
64716;SDS011;51146;50.274;19.000;2022-08-27T10:24:43;15.07;;;11.80;;
64716;SDS011;51146;50.274;19.000;2022-08-27T10:35:28;12.40;;;11.00;;
64716;SDS011;51146;50.274;19.000;2022-08-27T10:38:22;12.70;;;10.05;;
64716;SDS011;51146;50.274;19.000;2022-08-27T10:51:49;15.50;;;9.60;;
64716;SDS011;51146;50.274;19.000;2022-08-27T10:56:55;9.02;;;7.07;;
64716;SDS011;51146;50.274;19.000;2022-08-27T10:59:59;10.85;;;7.53;;
64716;SDS011;51146;50.274;19.000;2022-08-27T11:05:28;9.77;;;7.68;;
64716;SDS011;51146;50.274;19.000;2022-08-27T11:08:00;12.52;;;7.65;;
64716;SDS011;51146;50.274;19.000;2022-08-27T11:10:33;10.73;;;7.20;;
64716;SDS011;51146;50.274;19.000;2022-08-27T11:13:06;11.98;;;7.68;;
64716;SDS011;51146;50.274;19.000;2022-08-27T11:15:38;10.23;;;6.68;;
64716;SDS011;51146;50.274;19.000;2022-08-27T11:18:15;9.63;;;6.35;;
64716;SDS011;51146;50.274;19.000;2022-08-27T11:21:15;5.43;;;4.72;;
64716;SDS011;51146;50.274;19.000;2022-08-27T11:23:54;6.72;;;4.30;;
64716;SDS011;51146;50.274;19.000;2022-08-27T11:26:49;9.90;;;4.63;;
64716;SDS011;51146;50.274;19.000;2022-08-27T11:29:27;8.93;;;5.35;;
64716;SDS011;51146;50.274;19.000;2022-08-27T11:34:51;9.00;;;5.45;;
64716;SDS011;51146;50.274;19.000;2022-08-27T11:45:19;9.00;;;5.43;;
64716;SDS011;51146;50.274;19.000;2022-08-27T11:47:57;8.70;;;5.57;;
64716;SDS011;51146;50.274;19.000;2022-08-27T11:50:40;10.25;;;5.80;;
64716;SDS011;51146;50.274;19.000;2022-08-27T11:53:26;9.35;;;4.80;;
64716;SDS011;51146;50.274;19.000;2022-08-27T12:01:36;6.95;;;4.90;;
64716;SDS011;51146;50.274;19.000;2022-08-27T12:04:18;11.40;;;5.53;;
64716;SDS011;51146;50.274;19.000;2022-08-27T12:29:16;11.40;;;5.15;;
64716;SDS011;51146;50.274;19.000;2022-08-27T12:31:54;12.75;;;4.80;;
64716;SDS011;51146;50.274;19.000;2022-08-27T12:34:26;11.18;;;5.30;;
64716;SDS011;51146;50.274;19.000;2022-08-27T12:36:55;15.10;;;6.43;;
64716;SDS011;51146;50.274;19.000;2022-08-27T12:39:27;8.65;;;5.20;;
64716;SDS011;51146;50.274;19.000;2022-08-27T12:41:57;9.90;;;5.40;;
64716;SDS011;51146;50.274;19.000;2022-08-27T12:44:28;8.50;;;4.97;;
64716;SDS011;51146;50.274;19.000;2022-08-27T12:47:00;8.18;;;5.13;;
64716;SDS011;51146;50.274;19.000;2022-08-27T12:49:44;9.18;;;5.28;;
64716;SDS011;51146;50.274;19.000;2022-08-27T12:55:34;7.38;;;5.53;;
64716;SDS011;51146;50.274;19.000;2022-08-27T12:58:37;10.18;;;5.25;;
64716;SDS011;51146;50.274;19.000;2022-08-27T13:01:28;8.10;;;5.47;;
64716;SDS011;51146;50.274;19.000;2022-08-27T13:04:13;6.22;;;5.32;;
64716;SDS011;51146;50.274;19.000;2022-08-27T13:06:50;7.15;;;5.47;;
64716;SDS011;51146;50.274;19.000;2022-08-27T13:09:24;8.23;;;5.13;;
64716;SDS011;51146;50.274;19.000;2022-08-27T13:11:54;7.88;;;5.18;;
64716;SDS011;51146;50.274;19.000;2022-08-27T13:14:23;13.68;;;5.38;;
64716;SDS011;51146;50.274;19.000;2022-08-27T13:17:04;10.68;;;8.20;;
64716;SDS011;51146;50.274;19.000;2022-08-27T13:19:45;7.90;;;5.55;;
64716;SDS011;51146;50.274;19.000;2022-08-27T13:22:21;7.10;;;5.78;;
64716;SDS011;51146;50.274;19.000;2022-08-27T13:24:51;9.68;;;5.93;;
64716;SDS011;51146;50.274;19.000;2022-08-27T13:27:24;10.88;;;5.78;;
64716;SDS011;51146;50.274;19.000;2022-08-27T13:29:53;8.68;;;6.18;;
64716;SDS011;51146;50.274;19.000;2022-08-27T13:32:21;9.93;;;6.20;;
64716;SDS011;51146;50.274;19.000;2022-08-27T13:37:24;11.15;;;5.88;;
64716;SDS011;51146;50.274;19.000;2022-08-27T13:39:53;11.50;;;6.00;;
64716;SDS011;51146;50.274;19.000;2022-08-27T13:42:22;8.55;;;5.95;;
64716;SDS011;51146;50.274;19.000;2022-08-27T13:44:51;12.18;;;6.38;;
64716;SDS011;51146;50.274;19.000;2022-08-27T13:47:23;10.13;;;5.75;;
64716;SDS011;51146;50.274;19.000;2022-08-27T13:50:06;9.27;;;5.38;;
64716;SDS011;51146;50.274;19.000;2022-08-27T13:52:37;9.63;;;4.88;;
64716;SDS011;51146;50.274;19.000;2022-08-27T13:55:26;9.88;;;5.57;;
64716;SDS011;51146;50.274;19.000;2022-08-27T13:57:54;7.37;;;5.47;;
64716;SDS011;51146;50.274;19.000;2022-08-27T14:00:28;13.70;;;4.97;;
64716;SDS011;51146;50.274;19.000;2022-08-27T14:02:57;7.53;;;5.10;;
64716;SDS011;51146;50.274;19.000;2022-08-27T14:05:27;12.18;;;5.15;;
64716;SDS011;51146;50.274;19.000;2022-08-27T14:08:00;9.25;;;5.55;;
64716;SDS011;51146;50.274;19.000;2022-08-27T14:10:40;10.30;;;5.95;;
64716;SDS011;51146;50.274;19.000;2022-08-27T14:13:21;7.60;;;4.80;;
64716;SDS011;51146;50.274;19.000;2022-08-27T14:15:50;10.02;;;5.30;;
64716;SDS011;51146;50.274;19.000;2022-08-27T14:18:26;6.47;;;5.18;;
64716;SDS011;51146;50.274;19.000;2022-08-27T14:21:21;6.85;;;4.55;;
64716;SDS011;51146;50.274;19.000;2022-08-27T14:23:48;8.80;;;5.63;;
64716;SDS011;51146;50.274;19.000;2022-08-27T14:26:16;8.13;;;5.32;;
64716;SDS011;51146;50.274;19.000;2022-08-27T14:28:44;10.27;;;5.18;;
64716;SDS011;51146;50.274;19.000;2022-08-27T14:31:12;9.25;;;5.50;;
64716;SDS011;51146;50.274;19.000;2022-08-27T14:33:40;9.68;;;5.65;;
64716;SDS011;51146;50.274;19.000;2022-08-27T14:36:06;9.40;;;5.43;;
64716;SDS011;51146;50.274;19.000;2022-08-27T14:38:35;8.88;;;5.50;;
64716;SDS011;51146;50.274;19.000;2022-08-27T14:41:06;9.95;;;4.93;;
64716;SDS011;51146;50.274;19.000;2022-08-27T14:43:33;8.40;;;4.82;;
64716;SDS011;51146;50.274;19.000;2022-08-27T14:46:01;8.50;;;5.20;;
64716;SDS011;51146;50.274;19.000;2022-08-27T14:48:30;8.73;;;4.68;;
64716;SDS011;51146;50.274;19.000;2022-08-27T14:50:59;9.52;;;5.22;;
64716;SDS011;51146;50.274;19.000;2022-08-27T14:53:33;9.13;;;5.15;;
64716;SDS011;51146;50.274;19.000;2022-08-27T14:55:59;6.72;;;5.25;;
64716;SDS011;51146;50.274;19.000;2022-08-27T14:58:27;6.93;;;5.25;;
64716;SDS011;51146;50.274;19.000;2022-08-27T15:00:55;9.20;;;4.85;;
64716;SDS011;51146;50.274;19.000;2022-08-27T15:03:24;12.73;;;5.03;;
64716;SDS011;51146;50.274;19.000;2022-08-27T15:05:52;8.45;;;5.15;;
64716;SDS011;51146;50.274;19.000;2022-08-27T15:08:21;10.43;;;5.75;;
64716;SDS011;51146;50.274;19.000;2022-08-27T15:10:54;7.63;;;5.70;;
64716;SDS011;51146;50.274;19.000;2022-08-27T15:13:21;10.98;;;5.13;;
64716;SDS011;51146;50.274;19.000;2022-08-27T15:15:49;6.65;;;5.15;;
64716;SDS011;51146;50.274;19.000;2022-08-27T15:18:18;12.27;;;5.13;;
64716;SDS011;51146;50.274;19.000;2022-08-27T15:20:47;9.05;;;4.85;;
64716;SDS011;51146;50.274;19.000;2022-08-27T15:23:15;8.27;;;5.38;;
64716;SDS011;51146;50.274;19.000;2022-08-27T15:25:43;9.13;;;5.28;;
64716;SDS011;51146;50.274;19.000;2022-08-27T15:28:12;7.07;;;5.50;;
64716;SDS011;51146;50.274;19.000;2022-08-27T15:30:40;10.35;;;5.25;;
64716;SDS011;51146;50.274;19.000;2022-08-27T15:33:07;7.00;;;5.13;;
64716;SDS011;51146;50.274;19.000;2022-08-27T15:35:33;10.55;;;5.70;;
64716;SDS011;51146;50.274;19.000;2022-08-27T15:38:00;8.45;;;5.47;;
64716;SDS011;51146;50.274;19.000;2022-08-27T15:40:30;8.23;;;4.90;;
64716;SDS011;51146;50.274;19.000;2022-08-27T15:42:59;8.65;;;4.95;;
64716;SDS011;51146;50.274;19.000;2022-08-27T15:45:30;10.25;;;5.45;;
64716;SDS011;51146;50.274;19.000;2022-08-27T15:48:00;11.60;;;5.50;;
64716;SDS011;51146;50.274;19.000;2022-08-27T15:50:27;9.57;;;5.40;;
64716;SDS011;51146;50.274;19.000;2022-08-27T15:52:57;8.68;;;4.80;;
64716;SDS011;51146;50.274;19.000;2022-08-27T15:55:27;8.60;;;5.13;;
64716;SDS011;51146;50.274;19.000;2022-08-27T15:57:56;9.25;;;5.43;;
64716;SDS011;51146;50.274;19.000;2022-08-27T16:00:25;7.37;;;5.17;;
64716;SDS011;51146;50.274;19.000;2022-08-27T16:02:53;8.13;;;5.17;;
64716;SDS011;51146;50.274;19.000;2022-08-27T16:05:21;7.50;;;4.72;;
64716;SDS011;51146;50.274;19.000;2022-08-27T16:07:50;6.85;;;4.75;;
64716;SDS011;51146;50.274;19.000;2022-08-27T16:10:17;11.43;;;5.32;;
64716;SDS011;51146;50.274;19.000;2022-08-27T16:12:43;7.25;;;4.70;;
64716;SDS011;51146;50.274;19.000;2022-08-27T16:15:11;7.90;;;5.20;;
64716;SDS011;51146;50.274;19.000;2022-08-27T16:17:39;7.63;;;5.40;;
64716;SDS011;51146;50.274;19.000;2022-08-27T16:20:11;8.00;;;5.63;;
64716;SDS011;51146;50.274;19.000;2022-08-27T16:22:41;10.63;;;5.40;;
64716;SDS011;51146;50.274;19.000;2022-08-27T16:27:43;8.00;;;5.22;;
64716;SDS011;51146;50.274;19.000;2022-08-27T16:30:10;8.90;;;5.63;;
64716;SDS011;51146;50.274;19.000;2022-08-27T16:32:38;11.48;;;5.80;;
64716;SDS011;51146;50.274;19.000;2022-08-27T16:35:05;8.38;;;5.03;;
64716;SDS011;51146;50.274;19.000;2022-08-27T16:37:33;11.05;;;5.47;;
64716;SDS011;51146;50.274;19.000;2022-08-27T16:40:01;11.75;;;6.25;;
64716;SDS011;51146;50.274;19.000;2022-08-27T16:42:30;12.18;;;6.70;;